Time;durP1;ratioP1;P1;durP2;ratioP2;P2;SDS_P1;SDS_P2;PMS_P1;PMS_P2;Temp;Humidity;BMP_temperature;BMP_pressure;BME280_temperature;BME280_humidity;BME280_pressure;Samples;Min_cycle;Max_cycle;Signal;HPM_P1;HPM_P2
2021/03/01 00:02:14;;;;;;;31.90;17.17;;;8.60;75.80;;;;;;4979897;28;20105;-62
2021/03/01 00:04:40;;;;;;;32.20;17.05;;;8.70;76.00;;;;;;4956757;28;20031;-63
2021/03/01 00:07:05;;;;;;;25.23;15.02;;;8.60;76.10;;;;;;4989274;28;20356;-62
2021/03/01 00:09:31;;;;;;;28.00;15.35;;;8.60;76.30;;;;;;4984564;28;20101;-63
2021/03/01 00:11:57;;;;;;;31.92;16.45;;;8.60;76.20;;;;;;4942401;28;20071;-62
2021/03/01 00:14:22;;;;;;;34.25;17.85;;;8.70;76.00;;;;;;5002810;28;20084;-62
2021/03/01 00:16:48;;;;;;;31.65;17.88;;;8.70;75.90;;;;;;4966644;28;20027;-62
2021/03/01 00:19:13;;;;;;;35.53;18.08;;;8.70;75.90;;;;;;4981498;28;20041;-62
2021/03/01 00:21:39;;;;;;;35.20;17.63;;;8.70;76.00;;;;;;4998257;28;20036;-63
2021/03/01 00:24:05;;;;;;;31.50;18.17;;;8.70;76.00;;;;;;4978067;28;20072;-63
2021/03/01 00:26:31;;;;;;;31.90;17.75;;;8.70;75.90;;;;;;4974962;28;20075;-63
2021/03/01 00:28:56;;;;;;;34.38;17.38;;;8.70;76.00;;;;;;4969754;28;20438;-62
2021/03/01 00:31:22;;;;;;;42.30;21.25;;;8.70;75.90;;;;;;4985595;28;20456;-62
2021/03/01 00:33:48;;;;;;;37.72;18.73;;;8.80;76.00;;;;;;4979623;28;20102;-62
2021/03/01 00:36:13;;;;;;;37.90;18.25;;;8.70;75.90;;;;;;4992050;28;20454;-63
2021/03/01 00:38:39;;;;;;;34.30;19.15;;;8.70;76.00;;;;;;5018882;28;21691;-63
2021/03/01 00:41:05;;;;;;;36.72;20.65;;;8.70;76.10;;;;;;4960630;28;20042;-62
2021/03/01 00:43:31;;;;;;;35.05;18.33;;;8.80;75.90;;;;;;4987162;28;20048;-63
2021/03/01 00:45:57;;;;;;;36.05;20.95;;;8.80;75.70;;;;;;4967156;28;20031;-62
2021/03/01 00:48:23;;;;;;;38.00;19.38;;;8.80;75.50;;;;;;4967646;28;20049;-62
2021/03/01 00:50:49;;;;;;;35.60;20.15;;;8.90;75.50;;;;;;4966526;28;20396;-63
2021/03/01 00:53:25;;;;;;;37.17;18.70;;;8.80;75.40;;;;;;4957284;28;20078;-62
2021/03/01 00:55:52;;;;;;;37.92;20.27;;;8.80;75.40;;;;;;4989632;28;20025;-63
2021/03/01 00:58:19;;;;;;;36.15;20.23;;;8.90;75.40;;;;;;4968028;28;20028;-63
2021/03/01 01:00:45;;;;;;;35.42;18.55;;;8.90;75.30;;;;;;4959220;28;20480;-62
2021/03/01 01:03:11;;;;;;;35.03;18.25;;;8.80;75.30;;;;;;4955601;28;20465;-62
2021/03/01 01:05:37;;;;;;;39.20;19.88;;;8.80;75.40;;;;;;4963363;28;20362;-62
2021/03/01 01:08:03;;;;;;;36.88;19.55;;;8.80;75.50;;;;;;5033335;28;20048;-63
2021/03/01 01:10:29;;;;;;;36.80;19.58;;;8.80;75.50;;;;;;5004107;28;20134;-62
2021/03/01 01:12:54;;;;;;;36.97;20.13;;;8.70;75.60;;;;;;4971014;28;20445;-63
2021/03/01 01:15:20;;;;;;;37.85;20.92;;;8.70;75.70;;;;;;4989916;28;20126;-63
2021/03/01 01:17:46;;;;;;;43.10;24.40;;;8.70;75.80;;;;;;4954031;28;20118;-63
2021/03/01 01:20:13;;;;;;;36.97;20.80;;;8.70;75.80;;;;;;4951882;28;20177;-62
2021/03/01 01:22:40;;;;;;;43.13;19.75;;;8.60;76.10;;;;;;4962410;28;20532;-62
2021/03/01 01:25:07;;;;;;;39.45;23.23;;;8.60;76.50;;;;;;4974717;28;20089;-62
2021/03/01 01:27:33;;;;;;;45.35;23.42;;;8.50;76.40;;;;;;5016588;28;20356;-63
2021/03/01 01:29:58;;;;;;;47.78;24.88;;;8.50;76.60;;;;;;5004272;28;20038;-63
2021/03/01 01:32:24;;;;;;;43.88;21.45;;;8.50;76.80;;;;;;4957470;28;20093;-62
2021/03/01 01:34:50;;;;;;;49.05;22.08;;;8.40;76.80;;;;;;4954774;28;20492;-62
2021/03/01 01:37:15;;;;;;;44.78;23.35;;;8.50;77.00;;;;;;4976755;28;20144;-62
2021/03/01 01:39:41;;;;;;;40.83;22.58;;;8.40;77.00;;;;;;5012229;28;20098;-63
2021/03/01 01:42:07;;;;;;;42.90;21.40;;;8.40;77.10;;;;;;4955972;28;20039;-62
2021/03/01 01:44:33;;;;;;;46.90;21.00;;;8.40;77.10;;;;;;4994582;28;20032;-63
2021/03/01 01:46:58;;;;;;;44.17;21.05;;;8.40;77.10;;;;;;4966563;28;20028;-63
2021/03/01 01:49:24;;;;;;;42.13;23.27;;;8.40;77.10;;;;;;5014868;28;20059;-62
2021/03/01 01:51:50;;;;;;;40.28;21.67;;;8.50;76.90;;;;;;4967003;28;20142;-63
2021/03/01 01:54:16;;;;;;;40.05;20.73;;;8.50;76.60;;;;;;4997685;28;20037;-62
2021/03/01 01:56:42;;;;;;;40.60;21.23;;;8.50;76.50;;;;;;5002067;28;20032;-63
2021/03/01 01:59:08;;;;;;;41.78;23.27;;;8.40;76.70;;;;;;5011534;28;20064;-62
2021/03/01 02:01:34;;;;;;;40.38;20.98;;;8.40;76.90;;;;;;4993980;28;20035;-62
2021/03/01 02:04:08;;;;;;;45.83;23.58;;;8.40;76.90;;;;;;4962315;28;20036;-62
2021/03/01 02:07:08;;;;;;;44.42;22.17;;;8.40;76.90;;;;;;4982303;28;20031;-62
2021/03/01 02:09:58;;;;;;;43.45;24.35;;;8.30;77.00;;;;;;4979524;28;20035;-63
2021/03/01 02:12:38;;;;;;;40.40;20.45;;;8.30;77.00;;;;;;4983612;28;20033;-63
2021/03/01 02:15:11;;;;;;;46.25;25.02;;;8.40;77.30;;;;;;4980775;28;20099;-62
2021/03/01 02:17:37;;;;;;;49.75;23.38;;;8.40;77.10;;;;;;4979784;28;20102;-62
2021/03/01 02:20:06;;;;;;;41.10;21.08;;;8.40;77.00;;;;;;4965829;28;20035;-63
2021/03/01 02:22:32;;;;;;;39.70;18.92;;;8.40;77.10;;;;;;5026757;28;20363;-63
2021/03/01 02:25:22;;;;;;;39.50;22.17;;;8.40;77.10;;;;;;4975848;28;20149;-62
2021/03/01 02:28:03;;;;;;;38.45;20.73;;;8.40;76.90;;;;;;5013390;28;20039;-63
2021/03/01 02:30:33;;;;;;;44.35;22.38;;;8.50;76.60;;;;;;4962195;28;20460;-62
2021/03/01 02:33:09;;;;;;;37.10;20.08;;;8.50;76.50;;;;;;4951793;28;20055;-63
2021/03/01 02:35:40;;;;;;;47.53;24.20;;;8.50;76.50;;;;;;4967153;28;20110;-63
2021/03/01 02:38:08;;;;;;;39.05;21.40;;;8.50;76.50;;;;;;4993389;28;20069;-63
2021/03/01 02:40:39;;;;;;;33.85;19.10;;;8.50;76.50;;;;;;4938690;28;20039;-63
2021/03/01 02:43:06;;;;;;;42.33;23.00;;;8.50;76.30;;;;;;4948386;28;20458;-63
2021/03/01 02:45:32;;;;;;;41.70;23.00;;;8.70;76.10;;;;;;4970225;28;20031;-62
2021/03/01 02:48:01;;;;;;;41.65;20.23;;;8.70;75.90;;;;;;4999150;28;20058;-63
2021/03/01 02:50:28;;;;;;;45.33;22.60;;;8.60;75.80;;;;;;4973563;28;20049;-63
2021/03/01 02:52:54;;;;;;;38.50;22.80;;;8.60;75.90;;;;;;4973267;28;20047;-63
2021/03/01 02:55:21;;;;;;;40.63;22.40;;;8.60;75.90;;;;;;5006748;28;20039;-62
2021/03/01 02:57:48;;;;;;;39.63;21.45;;;8.60;75.90;;;;;;5025753;28;20023;-63
2021/03/01 03:00:14;;;;;;;40.90;21.42;;;8.60;75.80;;;;;;4990031;28;20032;-63
2021/03/01 03:02:41;;;;;;;37.83;20.35;;;8.60;75.70;;;;;;4965270;28;20113;-62
2021/03/01 03:05:08;;;;;;;37.75;19.88;;;8.60;75.80;;;;;;4969281;28;20039;-62
2021/03/01 03:07:37;;;;;;;36.83;20.13;;;8.60;75.60;;;;;;4962557;28;20084;-63
2021/03/01 03:10:04;;;;;;;40.03;20.15;;;8.60;75.60;;;;;;4986959;28;20035;-63
2021/03/01 03:12:30;;;;;;;38.58;19.38;;;8.50;75.60;;;;;;4976895;28;20035;-63
2021/03/01 03:14:57;;;;;;;35.87;19.07;;;8.50;75.80;;;;;;4968689;28;20034;-63
2021/03/01 03:17:23;;;;;;;35.13;19.25;;;8.40;76.20;;;;;;4990154;28;20123;-63
2021/03/01 03:19:49;;;;;;;34.35;17.65;;;8.40;76.10;;;;;;5003715;28;20113;-63
2021/03/01 03:22:15;;;;;;;36.13;19.30;;;8.50;75.90;;;;;;4969591;28;20119;-63
2021/03/01 03:24:40;;;;;;;37.55;21.60;;;8.50;75.80;;;;;;5001933;28;20095;-62
2021/03/01 03:27:06;;;;;;;34.60;18.52;;;8.50;75.60;;;;;;5011185;28;20341;-62
2021/03/01 03:29:32;;;;;;;36.55;20.10;;;8.50;75.60;;;;;;4951439;29;20041;-62
2021/03/01 03:31:58;;;;;;;32.10;18.77;;;8.40;75.90;;;;;;5035615;28;20037;-62
2021/03/01 03:34:24;;;;;;;32.90;18.40;;;8.40;76.10;;;;;;5005810;28;20113;-63
2021/03/01 03:37:04;;;;;;;32.55;18.33;;;8.40;76.20;;;;;;5005066;28;20062;-63
2021/03/01 03:39:34;;;;;;;37.45;17.50;;;8.40;76.20;;;;;;4966189;28;20020;-63
2021/03/01 03:42:00;;;;;;;33.25;19.17;;;8.40;75.90;;;;;;5016905;28;20050;-62
2021/03/01 03:44:28;;;;;;;31.02;18.58;;;8.50;75.80;;;;;;5005999;28;20041;-62
2021/03/01 03:46:53;;;;;;;34.47;18.35;;;8.50;75.70;;;;;;4975726;28;20032;-63
2021/03/01 03:49:20;;;;;;;29.73;17.33;;;8.50;75.50;;;;;;5043156;28;20021;-62
2021/03/01 03:51:46;;;;;;;36.47;20.63;;;8.50;75.50;;;;;;4961510;28;20138;-62
2021/03/01 03:54:19;;;;;;;33.03;18.63;;;8.40;75.60;;;;;;4949356;28;20051;-63
2021/03/01 03:56:53;;;;;;;30.30;16.33;;;8.30;75.70;;;;;;4974379;28;20501;-62
2021/03/01 03:59:21;;;;;;;31.50;17.48;;;8.30;75.70;;;;;;4974267;28;20017;-63
2021/03/01 04:01:49;;;;;;;29.50;17.13;;;8.30;75.70;;;;;;4996126;28;20056;-62
2021/03/01 04:04:18;;;;;;;30.08;15.70;;;8.30;75.80;;;;;;5010131;28;20483;-63
2021/03/01 04:06:44;;;;;;;30.73;17.65;;;8.30;75.80;;;;;;4957543;28;20038;-62
2021/03/01 04:09:12;;;;;;;30.20;17.38;;;8.30;75.80;;;;;;4970640;28;20881;-62
2021/03/01 04:11:43;;;;;;;30.08;17.17;;;8.30;75.70;;;;;;4959082;28;20048;-62
2021/03/01 04:14:11;;;;;;;29.77;18.80;;;8.20;75.50;;;;;;4967502;28;21990;-62
2021/03/01 04:16:38;;;;;;;29.70;17.00;;;8.20;75.50;;;;;;4951085;28;20084;-63
2021/03/01 04:19:07;;;;;;;27.90;15.07;;;8.30;75.70;;;;;;4953668;28;20434;-62
2021/03/01 04:21:35;;;;;;;29.52;17.83;;;8.30;75.60;;;;;;4965239;28;20435;-62
2021/03/01 04:24:03;;;;;;;29.45;18.20;;;8.40;75.50;;;;;;5003583;28;20095;-62
2021/03/01 04:26:29;;;;;;;34.35;19.02;;;8.30;75.40;;;;;;5040007;28;20469;-62
2021/03/01 04:28:57;;;;;;;29.27;16.60;;;8.20;75.50;;;;;;4998826;28;20031;-63
2021/03/01 04:31:25;;;;;;;28.73;15.68;;;8.10;75.80;;;;;;5008482;28;20094;-62
2021/03/01 04:33:53;;;;;;;30.00;16.88;;;8.10;76.00;;;;;;4968798;28;20047;-62
2021/03/01 04:36:19;;;;;;;29.27;15.68;;;8.10;76.00;;;;;;4958750;28;20794;-62
2021/03/01 04:38:45;;;;;;;29.38;16.38;;;8.20;75.90;;;;;;4954371;28;20126;-62
2021/03/01 04:41:12;;;;;;;30.50;18.48;;;8.20;75.90;;;;;;4987426;28;20085;-62
2021/03/01 04:43:40;;;;;;;28.52;15.43;;;8.20;75.90;;;;;;5001517;28;20520;-62
2021/03/01 04:46:07;;;;;;;29.88;17.67;;;8.20;76.00;;;;;;4999690;28;20033;-62
2021/03/01 04:48:35;;;;;;;29.55;16.60;;;8.20;75.90;;;;;;4975471;28;20118;-62
2021/03/01 04:51:01;;;;;;;30.98;17.30;;;8.20;75.70;;;;;;5025647;28;20044;-63
2021/03/01 04:53:29;;;;;;;29.38;17.00;;;8.20;75.70;;;;;;5018639;28;20365;-62
2021/03/01 04:55:56;;;;;;;33.97;20.00;;;8.20;75.70;;;;;;4982671;28;20185;-63
2021/03/01 04:58:22;;;;;;;30.35;18.02;;;8.20;75.70;;;;;;4956116;28;20053;-62
2021/03/01 05:00:50;;;;;;;33.55;17.83;;;8.20;75.50;;;;;;4981559;28;20144;-62
2021/03/01 05:03:16;;;;;;;33.67;18.48;;;8.20;75.50;;;;;;4948857;28;20031;-62
2021/03/01 05:05:42;;;;;;;31.67;17.95;;;8.20;75.40;;;;;;4960453;28;20032;-62
2021/03/01 05:08:15;;;;;;;31.70;16.98;;;8.20;75.30;;;;;;5002862;28;20042;-62
2021/03/01 05:10:41;;;;;;;;;;;8.20;75.40;;;;;;4960543;28;20039;-62
2021/03/01 05:13:07;;;;;;;36.75;19.98;;;8.20;75.30;;;;;;4995461;28;19924;-62
2021/03/01 05:15:33;;;;;;;33.05;18.90;;;8.20;74.90;;;;;;4999416;28;20031;-62
2021/03/01 05:17:58;;;;;;;32.55;17.95;;;8.10;75.00;;;;;;4949103;28;20034;-63
2021/03/01 05:20:24;;;;;;;32.05;17.20;;;8.00;75.10;;;;;;4952099;28;20035;-62
2021/03/01 05:22:50;;;;;;;33.80;19.30;;;7.90;75.60;;;;;;4962773;28;20041;-63
2021/03/01 05:25:16;;;;;;;31.40;17.88;;;7.80;75.80;;;;;;4954492;28;20598;-62
2021/03/01 05:27:42;;;;;;;35.20;18.98;;;7.80;75.90;;;;;;4955553;28;20365;-62
2021/03/01 05:30:09;;;;;;;33.72;17.35;;;7.70;76.00;;;;;;5034150;28;20029;-62
2021/03/01 05:32:35;;;;;;;34.80;17.87;;;7.70;76.20;;;;;;4982647;28;20078;-63
2021/03/01 05:35:01;;;;;;;37.42;18.95;;;7.70;76.20;;;;;;5029626;28;20474;-62
2021/03/01 05:37:27;;;;;;;35.28;19.05;;;7.70;76.20;;;;;;4999520;28;20032;-62
2021/03/01 05:39:53;;;;;;;38.03;21.45;;;7.70;76.00;;;;;;4969234;28;20035;-62
2021/03/01 05:42:20;;;;;;;38.75;19.50;;;7.70;76.00;;;;;;4954600;28;20043;-62
2021/03/01 05:44:48;;;;;;;41.95;21.40;;;7.70;76.10;;;;;;4943034;28;20078;-62
2021/03/01 05:47:14;;;;;;;41.33;20.80;;;7.60;76.60;;;;;;4961636;28;20030;-62
2021/03/01 05:49:42;;;;;;;34.35;20.05;;;7.60;76.20;;;;;;4949362;28;20345;-63
2021/03/01 05:52:11;;;;;;;34.38;18.98;;;7.50;76.40;;;;;;4977774;28;20538;-62
2021/03/01 05:54:38;;;;;;;38.47;19.05;;;7.50;76.40;;;;;;4955926;28;20038;-62
2021/03/01 05:57:07;;;;;;;36.85;20.55;;;7.50;76.40;;;;;;4999333;28;20521;-62
2021/03/01 05:59:34;;;;;;;38.75;21.02;;;7.50;76.40;;;;;;5040426;28;20033;-62
2021/03/01 06:02:00;;;;;;;38.60;21.45;;;7.40;76.40;;;;;;4991549;28;20064;-63
2021/03/01 06:04:27;;;;;;;39.83;21.90;;;7.40;76.50;;;;;;4994932;28;20060;-62
2021/03/01 06:06:53;;;;;;;41.10;20.70;;;7.30;76.70;;;;;;4982445;28;20031;-62
2021/03/01 06:09:19;;;;;;;36.05;21.08;;;7.30;76.70;;;;;;4952769;28;20118;-62
2021/03/01 06:11:48;;;;;;;40.65;21.23;;;7.30;76.70;;;;;;4947836;28;20108;-63
2021/03/01 06:14:14;;;;;;;39.60;20.47;;;7.30;76.60;;;;;;4959106;28;20063;-63
2021/03/01 06:17:09;;;;;;;36.00;20.63;;;7.20;76.70;;;;;;4948568;28;20070;-62
2021/03/01 06:19:53;;;;;;;41.40;21.65;;;7.20;76.90;;;;;;4960366;28;21856;-62
2021/03/01 06:22:43;;;;;;;37.35;18.83;;;7.20;76.70;;;;;;5049010;28;20072;-62
2021/03/01 06:25:15;;;;;;;34.90;19.35;;;7.20;76.60;;;;;;4966146;28;20035;-62
2021/03/01 06:27:46;;;;;;;40.97;20.23;;;7.20;76.50;;;;;;4950630;28;20035;-62
2021/03/01 06:30:12;;;;;;;40.93;21.47;;;7.30;76.40;;;;;;5013566;28;20631;-62
2021/03/01 06:32:38;;;;;;;35.88;19.77;;;7.20;76.40;;;;;;4975826;28;20478;-62
2021/03/01 06:35:36;;;;;;;39.43;19.10;;;7.30;76.40;;;;;;4960541;28;20107;-62
2021/03/01 06:38:22;;;;;;;38.63;19.75;;;7.20;76.40;;;;;;5007857;28;20106;-63
2021/03/01 06:41:09;;;;;;;40.45;21.17;;;7.20;76.30;;;;;;4952007;28;20033;-62
2021/03/01 06:43:35;;;;;;;44.77;20.23;;;7.00;76.50;;;;;;4971798;28;20116;-62
2021/03/01 06:46:12;;;;;;;42.30;23.40;;;6.90;76.80;;;;;;4971882;28;20046;-62
2021/03/01 06:48:40;;;;;;;42.50;20.30;;;6.80;77.30;;;;;;4954967;28;20055;-62
2021/03/01 06:51:07;;;;;;;43.90;22.83;;;6.80;77.50;;;;;;4954137;28;20044;-62
2021/03/01 06:53:33;;;;;;;43.97;22.80;;;6.80;77.50;;;;;;4950875;28;20046;-62
2021/03/01 06:56:06;;;;;;;45.87;21.40;;;6.90;77.70;;;;;;4948770;28;20039;-62
2021/03/01 06:58:40;;;;;;;42.22;19.17;;;6.90;77.50;;;;;;4953495;28;20102;-63
2021/03/01 07:01:07;;;;;;;;;;;6.90;77.40;;;;;;4955189;28;20036;-63
2021/03/01 07:03:33;;;;;;;39.17;19.63;;;7.00;77.30;;;;;;4952157;28;19941;-62
2021/03/01 07:06:00;;;;;;;39.33;19.67;;;6.90;77.10;;;;;;4954989;28;20035;-62
2021/03/01 07:08:48;;;;;;;46.10;20.83;;;6.90;77.20;;;;;;4967357;28;20434;-62
2021/03/01 07:11:33;;;;;;;38.60;18.73;;;6.80;77.70;;;;;;4941218;28;20058;-63
2021/03/01 07:14:03;;;;;;;37.20;18.27;;;6.80;77.70;;;;;;4930844;28;20326;-62
2021/03/01 07:16:30;;;;;;;41.57;21.37;;;6.80;77.70;;;;;;4942479;28;20024;-62
2021/03/01 07:18:57;;;;;;;38.07;18.80;;;6.90;77.60;;;;;;4960982;28;20035;-62
2021/03/01 07:21:25;;;;;;;34.23;17.97;;;6.90;77.50;;;;;;4941272;28;20042;-62
2021/03/01 07:23:52;;;;;;;32.00;16.03;;;6.90;77.10;;;;;;4940876;28;20035;-62
2021/03/01 07:26:18;;;;;;;43.00;22.20;;;6.90;77.00;;;;;;4946526;28;20024;-62
2021/03/01 07:28:55;;;;;;;39.43;18.33;;;6.80;77.10;;;;;;4939082;28;20042;-62
2021/03/01 07:31:22;;;;;;;34.13;17.00;;;6.70;78.00;;;;;;4941685;28;20108;-62
2021/03/01 07:33:48;;;;;;;36.80;16.60;;;6.70;77.50;;;;;;4942352;28;20096;-63
2021/03/01 07:36:16;;;;;;;44.40;21.53;;;6.70;77.40;;;;;;4936362;28;20040;-63
2021/03/01 07:38:43;;;;;;;38.73;18.70;;;6.70;77.60;;;;;;4946252;28;20031;-62
2021/03/01 07:41:08;;;;;;;42.90;19.93;;;6.70;77.80;;;;;;4942168;28;20054;-62
2021/03/01 07:43:42;;;;;;;41.30;21.33;;;6.60;77.90;;;;;;4945026;28;20063;-62
2021/03/01 07:46:09;;;;;;;38.63;18.70;;;6.50;78.20;;;;;;4939055;28;20086;-62
2021/03/01 07:48:40;;;;;;;33.90;16.97;;;6.60;78.40;;;;;;4929186;28;20031;-62
2021/03/01 07:51:07;;;;;;;36.73;17.63;;;6.50;78.60;;;;;;4934243;28;20043;-62
2021/03/01 07:53:50;;;;;;;37.27;18.27;;;6.60;78.50;;;;;;4943137;28;20031;-62
2021/03/01 07:56:25;;;;;;;34.10;15.93;;;6.70;78.50;;;;;;4947422;28;20472;-62
2021/03/01 07:59:04;;;;;;;43.00;21.50;;;6.70;78.20;;;;;;4947538;28;20028;-62
2021/03/01 08:01:29;;;;;;;37.87;18.67;;;6.80;78.10;;;;;;4955719;28;20050;-62
2021/03/01 08:03:56;;;;;;;35.37;17.57;;;6.80;78.00;;;;;;4951218;28;20028;-62
2021/03/01 08:06:22;;;;;;;40.77;17.63;;;6.80;78.00;;;;;;4954891;28;20027;-62
2021/03/01 08:08:53;;;;;;;43.20;19.90;;;6.80;77.90;;;;;;4972146;28;20035;-62
2021/03/01 08:11:37;;;;;;;39.43;18.00;;;6.80;78.10;;;;;;4951224;28;20070;-61
2021/03/01 08:14:13;;;;;;;38.80;18.23;;;6.80;78.40;;;;;;4952064;28;20031;-62
2021/03/01 08:16:39;;;;;;;41.27;19.13;;;6.80;78.40;;;;;;4949258;28;20039;-62
2021/03/01 08:19:05;;;;;;;40.43;20.33;;;6.80;78.30;;;;;;5000254;28;20052;-62
2021/03/01 08:22:04;;;;;;;38.07;17.83;;;6.80;78.30;;;;;;4949660;28;20075;-62
2021/03/01 08:24:56;;;;;;;32.87;17.17;;;6.80;78.30;;;;;;4978140;28;20030;-63
2021/03/01 08:27:24;;;;;;;35.87;18.30;;;6.90;78.20;;;;;;5023063;28;20049;-63
2021/03/01 08:30:22;;;;;;;37.57;19.17;;;6.90;77.90;;;;;;4964226;28;20053;-63
2021/03/01 08:33:09;;;;;;;37.73;17.93;;;6.90;78.20;;;;;;4967536;28;20062;-63
2021/03/01 08:35:49;;;;;;;39.20;18.90;;;6.90;78.20;;;;;;4946864;28;20517;-63
2021/03/01 08:38:17;;;;;;;36.27;17.70;;;6.90;78.10;;;;;;4943694;28;20035;-63
2021/03/01 08:40:54;;;;;;;37.97;18.63;;;6.90;78.10;;;;;;4948722;28;20468;-63
2021/03/01 08:43:48;;;;;;;35.33;19.03;;;7.00;78.10;;;;;;4950557;28;20055;-63
2021/03/01 08:46:19;;;;;;;32.72;15.38;;;7.00;78.00;;;;;;4944087;28;20044;-63
2021/03/01 08:48:47;;;;;;;31.87;14.77;;;7.10;77.60;;;;;;5000292;28;20040;-63
2021/03/01 08:51:14;;;;;;;30.67;16.40;;;7.10;77.50;;;;;;5046017;28;20545;-63
2021/03/01 08:53:40;;;;;;;28.20;14.40;;;7.10;77.40;;;;;;4955186;28;20086;-63
2021/03/01 08:56:15;;;;;;;36.13;18.87;;;7.20;77.40;;;;;;4950121;28;20019;-63
2021/03/01 08:58:40;;;;;;;29.57;16.20;;;7.30;77.10;;;;;;4976253;28;20053;-63
2021/03/01 09:01:07;;;;;;;28.17;15.13;;;7.30;76.90;;;;;;4992302;28;20059;-63
2021/03/01 09:03:43;;;;;;;31.10;15.93;;;7.30;76.90;;;;;;5043340;28;20052;-63
2021/03/01 09:06:20;;;;;;;32.63;15.33;;;7.30;76.90;;;;;;4983369;28;20029;-62
2021/03/01 09:08:56;;;;;;;34.80;17.57;;;7.30;76.80;;;;;;4984360;28;20025;-63
2021/03/01 09:11:27;;;;;;;27.02;14.38;;;7.40;76.80;;;;;;5002963;28;20070;-63
2021/03/01 09:13:55;;;;;;;31.03;15.37;;;7.40;76.70;;;;;;4953566;28;20441;-63
2021/03/01 09:16:26;;;;;;;31.33;16.38;;;7.50;77.00;;;;;;4988179;28;20035;-62
2021/03/01 09:18:57;;;;;;;29.60;15.35;;;7.60;76.30;;;;;;4957979;28;20039;-63
2021/03/01 09:21:23;;;;;;;33.90;16.10;;;7.60;76.20;;;;;;4982502;28;20056;-63
2021/03/01 09:23:54;;;;;;;29.47;16.33;;;7.70;76.00;;;;;;4954374;28;20034;-63
2021/03/01 09:26:33;;;;;;;37.72;15.82;;;7.70;75.80;;;;;;4948626;29;20034;-63
2021/03/01 09:29:05;;;;;;;29.43;13.93;;;7.70;76.00;;;;;;4942871;28;20028;-63
2021/03/01 09:31:36;;;;;;;35.72;17.92;;;7.70;75.90;;;;;;4976743;28;20073;-63
2021/03/01 09:34:02;;;;;;;30.50;15.80;;;7.80;75.80;;;;;;4975661;28;20035;-63
2021/03/01 09:36:30;;;;;;;26.92;13.35;;;7.80;75.70;;;;;;5012430;28;20036;-63
2021/03/01 09:38:56;;;;;;;29.70;15.77;;;7.80;75.50;;;;;;5005512;28;20435;-63
2021/03/01 09:41:21;;;;;;;31.13;16.38;;;7.80;75.70;;;;;;5050266;28;20067;-63
2021/03/01 09:43:49;;;;;;;27.10;14.73;;;7.90;75.60;;;;;;4976995;28;20059;-63
2021/03/01 09:46:16;;;;;;;31.70;16.27;;;8.00;75.50;;;;;;4954437;28;20046;-63
2021/03/01 09:48:56;;;;;;;23.85;13.80;;;8.10;75.20;;;;;;5020078;28;20032;-63
2021/03/01 09:51:24;;;;;;;29.40;13.23;;;8.10;74.90;;;;;;4994045;28;20042;-63
2021/03/01 09:53:50;;;;;;;31.55;14.23;;;8.20;74.80;;;;;;4951222;28;20486;-63
2021/03/01 09:56:16;;;;;;;25.27;12.98;;;8.20;74.50;;;;;;5025243;28;20513;-64
2021/03/01 09:58:43;;;;;;;28.02;15.63;;;8.20;74.30;;;;;;4997834;28;20048;-67
2021/03/01 10:01:13;;;;;;;29.45;13.75;;;8.10;74.40;;;;;;4949148;28;20567;-65
2021/03/01 10:03:44;;;;;;;32.63;16.08;;;8.00;74.60;;;;;;4959114;28;20077;-66
2021/03/01 10:06:11;;;;;;;32.10;15.73;;;7.90;75.10;;;;;;4957869;28;20039;-65
2021/03/01 10:08:38;;;;;;;29.75;15.00;;;7.90;75.10;;;;;;4970984;28;20039;-65
2021/03/01 10:11:04;;;;;;;24.27;12.40;;;8.00;75.10;;;;;;5047687;28;20045;-66
2021/03/01 10:13:33;;;;;;;28.80;14.20;;;8.00;75.10;;;;;;4993597;28;20039;-64
2021/03/01 10:16:06;;;;;;;30.33;14.98;;;8.10;75.00;;;;;;4945031;28;20035;-63
2021/03/01 10:18:33;;;;;;;30.05;13.70;;;8.20;74.70;;;;;;4948701;28;20097;-63
2021/03/01 10:21:03;;;;;;;25.00;13.40;;;8.30;74.60;;;;;;4958964;28;20047;-63
2021/03/01 10:23:40;;;;;;;28.58;14.95;;;8.40;74.40;;;;;;4947820;28;20438;-63
2021/03/01 10:26:14;;;;;;;24.77;13.40;;;8.50;74.00;;;;;;4948610;28;20051;-63
2021/03/01 10:28:46;;;;;;;26.27;14.18;;;8.50;73.80;;;;;;4947325;28;20027;-64
2021/03/01 10:31:15;;;;;;;25.98;14.52;;;8.60;73.60;;;;;;4946534;28;20422;-63
2021/03/01 10:33:48;;;;;;;25.88;13.95;;;8.70;73.40;;;;;;4960275;28;20066;-64
2021/03/01 10:36:14;;;;;;;29.55;15.55;;;8.60;73.10;;;;;;4948320;28;20342;-64
2021/03/01 10:39:03;;;;;;;23.20;13.65;;;8.60;73.10;;;;;;4946842;28;20027;-64
2021/03/01 10:41:32;;;;;;;29.88;15.45;;;8.40;73.50;;;;;;4946434;28;20442;-63
2021/03/01 10:44:05;;;;;;;26.50;14.60;;;8.40;73.40;;;;;;4947979;28;20078;-63
2021/03/01 10:46:33;;;;;;;29.05;14.02;;;8.40;73.70;;;;;;4946202;28;20395;-63
2021/03/01 10:49:02;;;;;;;29.10;16.75;;;8.50;73.70;;;;;;4954392;28;20023;-63
2021/03/01 10:51:28;;;;;;;22.13;12.70;;;8.60;73.50;;;;;;4942573;28;20104;-63
2021/03/01 10:53:53;;;;;;;27.75;14.82;;;8.70;73.30;;;;;;4964015;28;20036;-63
2021/03/01 10:56:19;;;;;;;28.05;13.95;;;8.80;72.90;;;;;;4958484;28;20035;-63
2021/03/01 10:58:45;;;;;;;29.67;16.40;;;8.80;72.90;;;;;;4957024;28;20498;-63
2021/03/01 11:01:11;;;;;;;27.17;13.32;;;8.80;72.60;;;;;;4948617;28;20047;-63
2021/03/01 11:03:37;;;;;;;26.42;15.82;;;8.80;72.70;;;;;;4947058;28;20039;-63
2021/03/01 11:06:03;;;;;;;23.08;12.05;;;8.70;72.90;;;;;;4945164;28;20579;-63
2021/03/01 11:08:28;;;;;;;22.45;12.73;;;8.80;72.90;;;;;;4965377;28;20423;-64
2021/03/01 11:10:54;;;;;;;23.88;12.43;;;8.80;73.40;;;;;;4968380;28;20504;-63
2021/03/01 11:13:20;;;;;;;25.70;14.05;;;8.80;72.80;;;;;;4936964;28;20123;-64
2021/03/01 11:15:45;;;;;;;25.08;14.93;;;8.80;72.60;;;;;;4936215;28;20045;-63
2021/03/01 11:18:11;;;;;;;21.55;11.55;;;8.90;72.60;;;;;;4946625;28;20535;-63
2021/03/01 11:20:37;;;;;;;23.88;12.32;;;9.00;72.30;;;;;;4928418;28;20069;-63
2021/03/01 11:23:06;;;;;;;21.23;11.95;;;9.00;72.20;;;;;;4962344;28;20126;-63
2021/03/01 11:25:31;;;;;;;27.90;14.07;;;9.00;72.20;;;;;;4994270;28;20027;-63
2021/03/01 11:27:57;;;;;;;22.55;13.43;;;9.20;72.10;;;;;;4951722;28;20468;-63
2021/03/01 11:30:23;;;;;;;25.00;11.95;;;9.30;71.80;;;;;;4944235;28;20034;-63
2021/03/01 11:32:49;;;;;;;25.38;11.85;;;9.30;71.40;;;;;;4951403;29;20523;-63
2021/03/01 11:35:15;;;;;;;20.90;12.25;;;9.40;71.20;;;;;;4950897;29;20059;-63
2021/03/01 11:37:40;;;;;;;21.58;12.32;;;9.40;71.10;;;;;;4961663;28;20478;-64
2021/03/01 11:40:07;;;;;;;21.77;11.07;;;9.40;70.70;;;;;;4945792;28;20039;-63
2021/03/01 11:42:32;;;;;;;21.70;11.70;;;9.40;70.70;;;;;;4966965;28;20480;-63
2021/03/01 11:44:58;;;;;;;21.52;12.68;;;9.40;70.70;;;;;;4933617;28;20107;-63
2021/03/01 11:47:24;;;;;;;18.75;11.02;;;9.40;70.50;;;;;;4939458;28;20042;-64
2021/03/01 11:49:49;;;;;;;19.10;10.68;;;9.50;70.40;;;;;;4949956;28;20434;-63
2021/03/01 11:52:15;;;;;;;17.50;10.13;;;9.70;70.30;;;;;;4943810;28;20031;-63
2021/03/01 11:54:41;;;;;;;20.08;12.02;;;10.00;69.70;;;;;;4946635;28;20491;-63
2021/03/01 11:57:06;;;;;;;22.50;11.02;;;10.30;69.00;;;;;;4956233;28;20042;-63
2021/03/01 11:59:32;;;;;;;18.67;10.18;;;10.40;67.70;;;;;;4948547;28;20032;-64
2021/03/01 12:01:58;;;;;;;20.00;10.27;;;10.60;67.00;;;;;;4949948;28;20063;-64
2021/03/01 12:04:23;;;;;;;20.92;11.70;;;11.00;65.60;;;;;;4947943;28;20042;-64
2021/03/01 12:06:49;;;;;;;20.23;10.80;;;11.30;64.50;;;;;;4949645;28;20404;-62
2021/03/01 12:09:15;;;;;;;19.55;10.65;;;11.40;64.80;;;;;;4958054;28;20039;-62
2021/03/01 12:11:40;;;;;;;18.23;10.93;;;11.70;64.80;;;;;;4950778;28;20085;-62
2021/03/01 12:14:06;;;;;;;21.50;11.77;;;11.90;63.30;;;;;;4998966;28;20056;-62
2021/03/01 12:16:31;;;;;;;21.60;11.85;;;12.00;62.90;;;;;;4988642;28;20032;-62
2021/03/01 12:18:57;;;;;;;19.75;10.68;;;12.00;62.80;;;;;;5033253;28;20578;-62
2021/03/01 12:21:22;;;;;;;16.02;9.35;;;12.00;62.40;;;;;;4983154;28;20063;-62
2021/03/01 12:23:48;;;;;;;16.30;9.60;;;12.10;62.30;;;;;;4947011;28;20493;-62
2021/03/01 12:26:14;;;;;;;23.05;12.27;;;12.10;62.30;;;;;;4982235;28;20038;-62
2021/03/01 12:28:40;;;;;;;18.70;10.80;;;12.00;61.80;;;;;;5000976;28;20128;-62
2021/03/01 12:31:05;;;;;;;18.25;10.52;;;12.00;61.60;;;;;;4958638;28;20123;-62
2021/03/01 12:33:31;;;;;;;20.00;11.68;;;12.00;62.10;;;;;;4977492;28;20040;-62
2021/03/01 12:35:56;;;;;;;18.83;11.60;;;12.00;61.50;;;;;;4980397;28;20131;-62
2021/03/01 12:38:22;;;;;;;17.85;11.48;;;12.00;61.60;;;;;;4991231;28;20042;-62
2021/03/01 12:40:48;;;;;;;22.98;14.30;;;11.90;62.10;;;;;;4965755;28;20101;-62
2021/03/01 12:43:14;;;;;;;20.17;11.30;;;12.00;62.10;;;;;;5004435;28;20124;-61
2021/03/01 12:45:40;;;;;;;19.83;11.70;;;11.90;62.60;;;;;;4964740;28;20115;-62